createdAt,value
2019-05-10T00:01:59.960Z,99038.88
2019-05-10T00:06:24.689Z,99051.04
2019-05-10T00:10:30.458Z,99066.05
2019-05-10T00:14:46.407Z,99067.25
2019-05-10T00:18:53.149Z,99067.25
2019-05-10T00:22:59.902Z,99077.28
2019-05-10T00:27:06.838Z,99083.80
2019-05-10T00:31:13.723Z,99086.42
2019-05-10T00:35:20.487Z,99093.16
2019-05-10T00:39:27.424Z,99092.83
2019-05-10T00:43:34.283Z,99090.18
2019-05-10T00:47:41.172Z,99094.44
2019-05-10T00:51:47.916Z,99098.85
2019-05-10T00:55:54.604Z,99106.14
2019-05-10T01:00:01.303Z,99105.34
2019-05-10T01:04:08.212Z,99111.39
2019-05-10T01:08:15.024Z,99100.50
2019-05-10T01:12:21.823Z,99100.56
2019-05-10T01:16:28.799Z,99107.13
2019-05-10T01:20:35.473Z,99106.81
2019-05-10T01:24:42.190Z,99117.12
2019-05-10T01:28:48.895Z,99124.49
2019-05-10T01:32:55.751Z,99125.97
2019-05-10T01:37:02.548Z,99121.47
2019-05-10T01:41:10.238Z,99126.11
2019-05-10T01:45:16.919Z,99133.33
2019-05-10T01:49:26.911Z,99131.63
2019-05-10T01:53:33.674Z,99139.73
2019-05-10T01:57:40.558Z,99145.97
2019-05-10T02:01:47.399Z,99150.84
2019-05-10T02:05:54.123Z,99152.69
2019-05-10T02:10:00.917Z,99144.22
2019-05-10T02:14:07.672Z,99147.45
2019-05-10T02:18:14.472Z,99152.59
2019-05-10T02:22:21.155Z,99157.84
2019-05-10T02:26:27.815Z,99171.00
2019-05-10T02:30:34.581Z,99177.11
2019-05-10T02:34:41.275Z,99169.53
2019-05-10T02:38:49.382Z,99177.33
2019-05-10T02:42:56.577Z,99184.86
2019-05-10T02:47:03.305Z,99183.45
2019-05-10T02:51:10.003Z,99186.52
2019-05-10T02:55:16.648Z,99188.27
2019-05-10T02:59:23.668Z,99197.34
2019-05-10T03:03:32.456Z,99200.92
2019-05-10T03:07:40.130Z,99203.17
2019-05-10T03:11:50.481Z,99209.80
2019-05-10T03:16:03.325Z,99210.88
2019-05-10T03:20:12.445Z,99210.37
2019-05-10T03:24:19.252Z,99208.98
2019-05-10T03:28:26.062Z,99214.00
2019-05-10T03:32:32.852Z,99219.23
2019-05-10T03:36:40.346Z,99212.33
2019-05-10T03:40:47.182Z,99215.09
2019-05-10T03:44:54.048Z,99214.53
2019-05-10T03:49:00.725Z,99220.97
2019-05-10T03:53:07.675Z,99211.77
2019-05-10T03:57:15.147Z,99217.97
2019-05-10T04:01:22.131Z,99220.80
2019-05-10T04:05:28.954Z,99229.34
2019-05-10T04:09:36.615Z,99229.42
2019-05-10T04:13:43.720Z,99225.41
2019-05-10T04:17:50.763Z,99237.30
2019-05-10T04:21:57.628Z,99231.95
2019-05-10T04:26:04.469Z,99245.34
2019-05-10T04:30:12.743Z,99246.78
2019-05-10T04:34:19.667Z,99247.70
2019-05-10T04:38:26.670Z,99259.77
2019-05-10T04:42:33.475Z,99267.31
2019-05-10T04:46:41.431Z,99268.41
2019-05-10T04:50:49.274Z,99275.88
2019-05-10T04:54:56.692Z,99280.48
2019-05-10T04:59:03.425Z,99278.64
2019-05-10T05:03:11.534Z,99285.88
2019-05-10T05:07:18.456Z,99287.57
2019-05-10T05:11:28.247Z,99289.86
2019-05-10T05:15:45.124Z,99294.12
2019-05-10T05:19:57.861Z,99304.38
2019-05-10T05:24:10.135Z,99308.91
2019-05-10T05:28:29.317Z,99314.66
2019-05-10T05:32:38.694Z,99321.05
2019-05-10T05:36:43.469Z,99323.52
2019-05-10T05:40:52.961Z,99330.37
2019-05-10T05:44:59.780Z,99338.41
2019-05-10T05:49:06.750Z,99346.70
2019-05-10T05:53:13.458Z,99343.89
2019-05-10T05:57:22.193Z,99351.93
2019-05-10T06:01:29.916Z,99356.22
2019-05-10T06:05:37.799Z,99357.78
2019-05-10T06:09:44.583Z,99352.98
2019-05-10T06:13:51.519Z,99368.31
2019-05-10T06:18:03.460Z,99368.02
2019-05-10T06:22:07.070Z,99367.13
2019-05-10T06:26:21.452Z,99374.00
2019-05-10T06:30:23.528Z,99383.19
2019-05-10T06:34:31.793Z,99378.83
2019-05-10T06:38:39.119Z,99389.53
2019-05-10T06:42:45.939Z,99385.23
2019-05-10T06:46:52.700Z,99383.53
2019-05-10T06:51:02.869Z,99390.69
2019-05-10T06:55:08.963Z,99390.05
2019-05-10T06:59:19.342Z,99392.95
2019-05-10T07:03:24.481Z,99397.09
2019-05-10T07:07:43.045Z,99399.89
2019-05-10T07:11:39.716Z,99396.70
2019-05-10T07:15:46.670Z,99404.23
2019-05-10T07:19:55.262Z,99403.45
2019-05-10T07:24:02.009Z,99406.63
2019-05-10T07:28:09.269Z,99414.96
2019-05-10T07:32:22.132Z,99412.25
2019-05-10T07:36:29.573Z,99414.86
2019-05-10T07:40:34.337Z,99406.13
2019-05-10T07:44:41.373Z,99415.59
2019-05-10T07:48:53.784Z,99423.00
2019-05-10T07:52:59.627Z,99428.72
2019-05-10T07:57:06.469Z,99433.23
2019-05-10T08:01:13.318Z,99431.36
2019-05-10T08:05:20.296Z,99432.02
2019-05-10T08:09:27.039Z,99432.52
2019-05-10T08:13:33.843Z,99437.04
2019-05-10T08:17:45.385Z,99447.61
2019-05-10T08:21:56.465Z,99451.95
2019-05-10T08:26:04.497Z,99447.52
2019-05-10T08:30:22.636Z,99455.56
2019-05-10T08:34:18.944Z,99460.66
2019-05-10T08:38:25.833Z,99459.43
2019-05-10T08:42:44.414Z,99468.95
2019-05-10T08:46:44.236Z,99472.85
2019-05-10T08:50:56.793Z,99479.19
2019-05-10T08:54:58.400Z,99479.47
2019-05-10T08:59:14.548Z,99477.09
2019-05-10T09:03:18.501Z,99478.97
2019-05-10T09:07:29.333Z,99487.19
2019-05-10T09:11:35.294Z,99498.37
2019-05-10T09:15:51.379Z,99481.66
2019-05-10T09:19:51.817Z,99488.53
2019-05-10T09:24:04.883Z,99484.99
2019-05-10T09:28:14.598Z,99480.95
2019-05-10T09:32:21.404Z,99491.50
2019-05-10T09:36:31.017Z,99502.91
2019-05-10T09:40:33.155Z,99502.78
2019-05-10T09:44:40.315Z,99501.41
2019-05-10T09:48:47.199Z,99501.43
2019-05-10T09:52:53.880Z,99501.38
2019-05-10T09:57:00.837Z,99497.92
2019-05-10T10:01:16.979Z,99504.36
2019-05-10T10:05:17.989Z,99514.81
2019-05-10T10:09:32.921Z,99499.23
2019-05-10T10:13:40.047Z,99506.50
2019-05-10T10:17:42.611Z,99502.96
2019-05-10T10:21:52.560Z,99496.79
2019-05-10T10:25:59.290Z,99502.48
2019-05-10T10:30:12.093Z,99508.63
2019-05-10T10:34:17.371Z,99516.41
2019-05-10T10:38:27.496Z,99502.75
2019-05-10T10:42:32.599Z,99499.28
2019-05-10T10:46:39.703Z,99501.14
2019-05-10T10:50:53.393Z,99498.89
2019-05-10T10:54:58.860Z,99500.59
2019-05-10T10:59:07.653Z,99495.53
2019-05-10T11:03:14.662Z,99499.58
2019-05-10T11:07:21.601Z,99489.34
2019-05-10T11:11:30.706Z,99508.55
2019-05-10T11:15:41.809Z,99483.53
2019-05-10T11:19:50.794Z,99482.14
2019-05-10T11:23:57.554Z,99491.61
2019-05-10T11:28:08.909Z,99487.44
2019-05-10T11:32:16.923Z,99469.14
2019-05-10T11:36:24.144Z,99477.97
2019-05-10T11:40:34.874Z,99495.83
2019-05-10T11:44:50.042Z,99481.20
2019-05-10T11:48:51.079Z,99491.42
2019-05-10T11:53:00.868Z,99483.13
2019-05-10T11:57:10.907Z,99485.44
2019-05-10T12:01:19.484Z,99482.04
2019-05-10T12:05:28.534Z,99476.00
2019-05-10T12:09:37.377Z,99478.16
2019-05-10T12:13:45.891Z,99486.73
2019-05-10T12:17:59.006Z,99479.90
2019-05-10T12:22:04.685Z,99477.48
2019-05-10T12:30:21.503Z,99481.86
2019-05-10T12:34:30.973Z,99487.53
2019-05-10T12:38:38.522Z,99481.25
2019-05-10T12:42:47.126Z,99470.38
2019-05-10T12:46:54.487Z,99478.58
2019-05-10T12:51:07.670Z,99481.99
2019-05-10T12:55:10.046Z,99476.00
2019-05-10T12:59:16.946Z,99483.84
2019-05-10T13:03:29.001Z,99485.44
2019-05-10T13:07:36.709Z,99485.43
2019-05-10T13:11:41.364Z,99501.31
2019-05-10T13:15:48.204Z,99498.89
2019-05-10T13:19:58.545Z,99504.25
2019-05-10T13:24:06.196Z,99497.16
2019-05-10T13:28:15.826Z,99506.12
2019-05-10T13:32:24.617Z,99473.20
2019-05-10T13:36:37.367Z,99503.20
2019-05-10T13:40:45.499Z,99502.23
2019-05-10T13:44:50.787Z,99496.92
2019-05-10T13:48:57.478Z,99503.98
2019-05-10T13:53:04.217Z,99496.75
2019-05-10T13:57:10.900Z,99501.43
2019-05-10T14:01:17.732Z,99497.72
2019-05-10T14:05:24.629Z,99503.70
2019-05-10T14:09:31.814Z,99498.09
2019-05-10T14:13:41.635Z,99510.05
2019-05-10T14:17:49.808Z,99504.05
2019-05-10T14:21:56.695Z,99496.72
2019-05-10T14:26:03.585Z,99495.62
2019-05-10T14:30:13.426Z,99496.08
2019-05-10T14:34:20.727Z,99482.28
2019-05-10T14:38:27.453Z,99497.33
2019-05-10T14:42:34.308Z,99498.00
2019-05-10T14:46:41.114Z,99497.97
2019-05-10T14:50:47.888Z,99483.45
2019-05-10T14:54:56.862Z,99490.14
2019-05-10T14:59:03.981Z,99480.76
2019-05-10T15:03:10.763Z,99492.78
2019-05-10T15:07:17.541Z,99481.98
2019-05-10T15:11:26.463Z,99490.07
2019-05-10T15:15:37.070Z,99502.82
2019-05-10T15:19:41.381Z,99499.56
2019-05-10T15:23:48.397Z,99489.68
2019-05-10T15:28:00.253Z,99489.34
2019-05-10T15:32:03.726Z,99493.73
2019-05-10T15:36:10.925Z,99496.95
2019-05-10T15:40:18.019Z,99488.55
2019-05-10T15:44:31.569Z,99488.32
2019-05-10T15:48:36.616Z,99481.60
2019-05-10T15:56:50.280Z,99487.16
2019-05-10T15:59:23.847Z,99484.95
2019-05-10T16:00:57.375Z,99492.27
2019-05-10T16:05:22.253Z,99496.31
2019-05-10T16:09:17.464Z,99494.98
2019-05-10T16:13:25.232Z,99491.50
2019-05-10T16:17:37.241Z,99478.06
2019-05-10T16:21:46.804Z,99483.42
2019-05-10T16:25:54.175Z,99487.94
2019-05-10T16:30:02.819Z,99503.24
2019-05-10T16:34:10.935Z,99498.98
2019-05-10T16:38:17.930Z,99491.16
2019-05-10T16:42:27.926Z,99488.44
2019-05-10T16:46:36.638Z,99483.35
2019-05-10T16:50:43.505Z,99483.09
2019-05-10T16:54:50.252Z,99490.63
2019-05-10T16:58:59.465Z,99495.92
2019-05-10T17:03:05.750Z,99495.12
2019-05-10T17:07:18.830Z,99498.34
2019-05-10T17:11:23.998Z,99499.11
2019-05-10T17:15:33.923Z,99503.63
2019-05-10T17:19:39.577Z,99508.63
2019-05-10T17:23:48.383Z,99504.28
2019-05-10T17:27:57.689Z,99505.80
2019-05-10T17:32:04.087Z,99501.61
2019-05-10T17:36:14.392Z,99505.59
2019-05-10T17:40:19.738Z,99494.34
2019-05-10T17:44:26.495Z,99492.94
2019-05-10T17:48:33.241Z,99490.91
2019-05-10T17:52:40.287Z,99482.44
2019-05-10T17:56:47.153Z,99486.69
2019-05-10T18:00:53.875Z,99478.11
2019-05-10T18:05:06.354Z,99482.34
2019-05-10T18:09:09.729Z,99475.44
2019-05-10T18:13:17.935Z,99468.94
2019-05-10T18:17:25.978Z,99467.27
2019-05-10T18:21:33.462Z,99471.81
2019-05-10T18:25:40.303Z,99472.28
2019-05-10T18:29:48.057Z,99473.09
2019-05-10T18:33:55.987Z,99477.06
2019-05-10T18:38:02.965Z,99483.58
2019-05-10T18:42:09.784Z,99483.04
2019-05-10T18:46:16.692Z,99492.58
2019-05-10T18:50:24.964Z,99499.27
2019-05-10T18:54:31.678Z,99511.43
2019-05-10T18:58:38.890Z,99520.17
2019-05-10T19:02:49.651Z,99525.46
2019-05-10T19:07:09.296Z,99523.73
2019-05-10T19:11:04.987Z,99531.76
2019-05-10T19:15:15.371Z,99529.60
2019-05-10T19:19:21.002Z,99537.19
2019-05-10T19:23:35.426Z,99537.38
2019-05-10T19:27:47.897Z,99534.43
2019-05-10T19:31:53.501Z,99538.05
2019-05-10T19:36:00.318Z,99537.50
2019-05-10T19:40:09.370Z,99542.98
2019-05-10T19:44:16.436Z,99541.95
2019-05-10T19:48:23.371Z,99538.80
2019-05-10T19:52:30.307Z,99543.81
2019-05-10T19:56:38.799Z,99559.77
2019-05-10T20:00:46.197Z,99564.85
2019-05-10T20:04:52.876Z,99572.50
2019-05-10T20:08:59.930Z,99576.96
2019-05-10T20:13:06.845Z,99577.30
2019-05-10T20:17:13.929Z,99584.72
2019-05-10T20:21:20.827Z,99590.47
2019-05-10T20:25:27.546Z,99584.17
2019-05-10T20:29:34.743Z,99583.28
2019-05-10T20:33:41.661Z,99575.09
2019-05-10T20:38:01.234Z,99563.98
2019-05-10T20:41:57.712Z,99567.43
2019-05-10T20:46:07.114Z,99564.11
2019-05-10T20:50:13.778Z,99570.41
2019-05-10T20:54:35.395Z,99578.64
2019-05-10T20:58:42.075Z,99568.63
2019-05-10T21:02:49.999Z,99575.36
2019-05-10T21:06:58.519Z,99573.97
2019-05-10T21:11:05.337Z,99592.56
2019-05-10T21:15:12.591Z,99591.16
2019-05-10T21:19:20.159Z,99602.36
2019-05-10T21:23:27.963Z,99595.23
2019-05-10T21:27:37.655Z,99588.74
2019-05-10T21:31:46.512Z,99587.41
2019-05-10T21:35:53.195Z,99588.46
2019-05-10T21:40:01.647Z,99582.19
2019-05-10T21:44:09.042Z,99564.34
2019-05-10T21:48:15.925Z,99554.02
2019-05-10T21:52:22.663Z,99552.06
2019-05-10T21:56:29.559Z,99550.66
2019-05-10T22:00:40.732Z,99563.95
2019-05-10T22:04:49.096Z,99541.20
2019-05-10T22:08:55.847Z,99531.00
2019-05-10T22:13:02.883Z,99529.17
2019-05-10T22:17:09.869Z,99519.99
2019-05-10T22:21:16.832Z,99498.61
2019-05-10T22:25:23.775Z,99493.88
2019-05-10T22:29:30.977Z,99490.92
2019-05-10T22:33:37.725Z,99493.28
2019-05-10T22:37:44.674Z,99491.77
2019-05-10T22:41:53.063Z,99496.65
2019-05-10T22:46:00.241Z,99488.59
2019-05-10T22:50:07.643Z,99476.95
2019-05-10T22:54:14.441Z,99471.34
2019-05-10T22:58:21.243Z,99462.72
2019-05-10T23:02:28.034Z,99467.69
2019-05-10T23:06:35.118Z,99477.64
2019-05-10T23:10:43.110Z,99474.91
2019-05-10T23:14:49.876Z,99468.50
2019-05-10T23:18:56.728Z,99462.93
2019-05-10T23:23:03.496Z,99458.97
2019-05-10T23:27:10.229Z,99461.63
2019-05-10T23:31:17.021Z,99455.62
2019-05-10T23:35:23.721Z,99444.21
2019-05-10T23:39:40.394Z,99436.01
2019-05-10T23:43:39.070Z,99426.39
2019-05-10T23:47:45.970Z,99425.53
2019-05-10T23:51:52.725Z,99429.67
2019-05-10T23:55:59.577Z,99430.45
